sensor_id;sensor_type;location;lat;lon;timestamp;temperature;humidity
5023;DHT22;2530;47.990;7.866;2022-12-19T00:00:17;0.70;99.90
5023;DHT22;2530;47.990;7.866;2022-12-19T00:02:43;0.70;99.90
5023;DHT22;2530;47.990;7.866;2022-12-19T00:05:08;0.60;99.90
5023;DHT22;2530;47.990;7.866;2022-12-19T00:07:34;0.70;99.90
5023;DHT22;2530;47.990;7.866;2022-12-19T00:09:59;0.80;99.90
5023;DHT22;2530;47.990;7.866;2022-12-19T00:12:25;0.80;99.90
5023;DHT22;2530;47.990;7.866;2022-12-19T00:14:50;0.70;99.90
5023;DHT22;2530;47.990;7.866;2022-12-19T00:17:16;0.70;99.90
5023;DHT22;2530;47.990;7.866;2022-12-19T00:19:41;0.80;99.90
5023;DHT22;2530;47.990;7.866;2022-12-19T00:22:07;0.80;99.90
5023;DHT22;2530;47.990;7.866;2022-12-19T00:24:33;0.80;99.90
5023;DHT22;2530;47.990;7.866;2022-12-19T00:26:58;0.90;99.90
5023;DHT22;2530;47.990;7.866;2022-12-19T00:29:24;1.10;99.90
5023;DHT22;2530;47.990;7.866;2022-12-19T00:31:49;1.00;99.90
5023;DHT22;2530;47.990;7.866;2022-12-19T00:34:15;1.10;99.90
5023;DHT22;2530;47.990;7.866;2022-12-19T00:36:41;1.10;99.90
5023;DHT22;2530;47.990;7.866;2022-12-19T00:39:07;1.10;99.90
5023;DHT22;2530;47.990;7.866;2022-12-19T00:41:36;1.20;99.90
5023;DHT22;2530;47.990;7.866;2022-12-19T00:44:04;1.20;99.90
5023;DHT22;2530;47.990;7.866;2022-12-19T00:46:32;1.20;99.90
5023;DHT22;2530;47.990;7.866;2022-12-19T00:48:58;1.20;99.90
5023;DHT22;2530;47.990;7.866;2022-12-19T00:51:30;1.20;99.90
5023;DHT22;2530;47.990;7.866;2022-12-19T00:53:57;1.20;99.90
5023;DHT22;2530;47.990;7.866;2022-12-19T00:56:26;1.20;99.90
5023;DHT22;2530;47.990;7.866;2022-12-19T00:58:52;1.20;99.90
5023;DHT22;2530;47.990;7.866;2022-12-19T01:01:23;1.20;99.90
5023;DHT22;2530;47.990;7.866;2022-12-19T01:03:50;1.20;99.90
5023;DHT22;2530;47.990;7.866;2022-12-19T01:06:15;1.30;99.90
5023;DHT22;2530;47.990;7.866;2022-12-19T01:08:41;1.30;99.90
5023;DHT22;2530;47.990;7.866;2022-12-19T01:11:07;1.30;99.90
5023;DHT22;2530;47.990;7.866;2022-12-19T01:13:33;1.30;99.90
5023;DHT22;2530;47.990;7.866;2022-12-19T01:16:08;1.30;99.90
5023;DHT22;2530;47.990;7.866;2022-12-19T01:18:34;1.30;99.90
5023;DHT22;2530;47.990;7.866;2022-12-19T01:21:03;1.30;99.90
5023;DHT22;2530;47.990;7.866;2022-12-19T01:23:29;1.30;99.90
5023;DHT22;2530;47.990;7.866;2022-12-19T01:25:55;1.40;99.90
5023;DHT22;2530;47.990;7.866;2022-12-19T01:28:21;1.30;99.90
5023;DHT22;2530;47.990;7.866;2022-12-19T01:30:47;1.30;99.90
5023;DHT22;2530;47.990;7.866;2022-12-19T01:33:14;1.30;99.90
5023;DHT22;2530;47.990;7.866;2022-12-19T01:35:41;1.30;99.90
5023;DHT22;2530;47.990;7.866;2022-12-19T01:38:08;1.40;99.90
5023;DHT22;2530;47.990;7.866;2022-12-19T01:40:36;1.40;99.90
5023;DHT22;2530;47.990;7.866;2022-12-19T01:43:02;1.40;99.90
5023;DHT22;2530;47.990;7.866;2022-12-19T01:45:32;1.30;99.90
5023;DHT22;2530;47.990;7.866;2022-12-19T01:53:10;1.20;99.90
5023;DHT22;2530;47.990;7.866;2022-12-19T01:55:40;1.40;99.90
5023;DHT22;2530;47.990;7.866;2022-12-19T01:58:07;1.40;99.90
5023;DHT22;2530;47.990;7.866;2022-12-19T02:00:33;1.50;99.90
5023;DHT22;2530;47.990;7.866;2022-12-19T02:03:05;1.60;99.90
5023;DHT22;2530;47.990;7.866;2022-12-19T02:05:31;1.50;99.90
5023;DHT22;2530;47.990;7.866;2022-12-19T02:07:57;1.50;99.90
5023;DHT22;2530;47.990;7.866;2022-12-19T02:10:24;1.60;99.90
5023;DHT22;2530;47.990;7.866;2022-12-19T02:12:49;1.50;99.90
5023;DHT22;2530;47.990;7.866;2022-12-19T02:15:15;1.50;99.90
5023;DHT22;2530;47.990;7.866;2022-12-19T02:25:40;1.50;99.90
5023;DHT22;2530;47.990;7.866;2022-12-19T02:28:21;1.40;99.90
5023;DHT22;2530;47.990;7.866;2022-12-19T02:31:39;1.40;99.90
5023;DHT22;2530;47.990;7.866;2022-12-19T02:34:18;1.50;99.90
5023;DHT22;2530;47.990;7.866;2022-12-19T02:41:51;1.50;99.90
5023;DHT22;2530;47.990;7.866;2022-12-19T02:44:44;1.50;99.90
5023;DHT22;2530;47.990;7.866;2022-12-19T02:47:12;1.40;99.90
5023;DHT22;2530;47.990;7.866;2022-12-19T02:49:39;1.40;99.90
5023;DHT22;2530;47.990;7.866;2022-12-19T02:54:47;1.40;99.90
5023;DHT22;2530;47.990;7.866;2022-12-19T03:05:00;1.50;99.90
5023;DHT22;2530;47.990;7.866;2022-12-19T03:07:41;1.60;99.90
5023;DHT22;2530;47.990;7.866;2022-12-19T03:13:31;1.50;99.90
5023;DHT22;2530;47.990;7.866;2022-12-19T03:15:59;1.50;99.90
5023;DHT22;2530;47.990;7.866;2022-12-19T03:18:26;1.50;99.90
5023;DHT22;2530;47.990;7.866;2022-12-19T03:21:16;1.40;99.90
5023;DHT22;2530;47.990;7.866;2022-12-19T03:23:45;1.40;99.90
5023;DHT22;2530;47.990;7.866;2022-12-19T03:26:19;1.40;99.90
5023;DHT22;2530;47.990;7.866;2022-12-19T03:28:55;1.60;99.90
5023;DHT22;2530;47.990;7.866;2022-12-19T03:31:25;1.50;99.90
5023;DHT22;2530;47.990;7.866;2022-12-19T03:33:56;1.50;99.90
5023;DHT22;2530;47.990;7.866;2022-12-19T03:36:44;1.60;99.90
5023;DHT22;2530;47.990;7.866;2022-12-19T03:39:11;1.60;99.90
5023;DHT22;2530;47.990;7.866;2022-12-19T03:41:38;1.60;99.90
5023;DHT22;2530;47.990;7.866;2022-12-19T03:44:25;1.70;99.90
5023;DHT22;2530;47.990;7.866;2022-12-19T03:49:59;1.70;99.90
5023;DHT22;2530;47.990;7.866;2022-12-19T03:52:41;1.60;99.90
5023;DHT22;2530;47.990;7.866;2022-12-19T03:55:17;1.60;99.90
5023;DHT22;2530;47.990;7.866;2022-12-19T03:57:53;1.60;99.90
5023;DHT22;2530;47.990;7.866;2022-12-19T04:00:21;1.60;99.90
5023;DHT22;2530;47.990;7.866;2022-12-19T04:02:51;1.60;99.90
5023;DHT22;2530;47.990;7.866;2022-12-19T04:05:24;1.70;99.90
5023;DHT22;2530;47.990;7.866;2022-12-19T04:07:54;1.70;99.90
5023;DHT22;2530;47.990;7.866;2022-12-19T04:10:22;1.70;99.90
5023;DHT22;2530;47.990;7.866;2022-12-19T04:13:02;1.70;99.90
5023;DHT22;2530;47.990;7.866;2022-12-19T04:16:06;1.70;99.90
5023;DHT22;2530;47.990;7.866;2022-12-19T04:18:37;1.70;99.90
5023;DHT22;2530;47.990;7.866;2022-12-19T04:21:10;1.80;99.90
5023;DHT22;2530;47.990;7.866;2022-12-19T04:23:41;1.80;99.90
5023;DHT22;2530;47.990;7.866;2022-12-19T04:26:09;1.80;99.90
5023;DHT22;2530;47.990;7.866;2022-12-19T04:28:48;1.80;99.90
5023;DHT22;2530;47.990;7.866;2022-12-19T04:31:15;1.80;99.90
5023;DHT22;2530;47.990;7.866;2022-12-19T04:33:42;1.80;99.90
5023;DHT22;2530;47.990;7.866;2022-12-19T04:36:08;1.70;99.90
5023;DHT22;2530;47.990;7.866;2022-12-19T04:38:34;1.70;99.90
5023;DHT22;2530;47.990;7.866;2022-12-19T04:41:00;1.80;99.90
5023;DHT22;2530;47.990;7.866;2022-12-19T04:43:25;1.80;99.90
5023;DHT22;2530;47.990;7.866;2022-12-19T04:45:51;1.80;99.90
5023;DHT22;2530;47.990;7.866;2022-12-19T04:48:17;1.80;99.90
5023;DHT22;2530;47.990;7.866;2022-12-19T04:50:42;1.80;99.90
5023;DHT22;2530;47.990;7.866;2022-12-19T04:53:08;1.80;99.90
5023;DHT22;2530;47.990;7.866;2022-12-19T04:55:33;1.90;99.90
5023;DHT22;2530;47.990;7.866;2022-12-19T04:57:59;1.90;99.90
5023;DHT22;2530;47.990;7.866;2022-12-19T05:00:24;1.90;99.90
5023;DHT22;2530;47.990;7.866;2022-12-19T05:02:50;1.90;99.90
5023;DHT22;2530;47.990;7.866;2022-12-19T05:05:15;1.90;99.90
5023;DHT22;2530;47.990;7.866;2022-12-19T05:07:43;1.80;99.90
5023;DHT22;2530;47.990;7.866;2022-12-19T05:10:09;1.80;99.90
5023;DHT22;2530;47.990;7.866;2022-12-19T05:12:34;1.90;99.90
5023;DHT22;2530;47.990;7.866;2022-12-19T05:15:00;1.80;99.90
5023;DHT22;2530;47.990;7.866;2022-12-19T05:17:25;1.80;99.90
5023;DHT22;2530;47.990;7.866;2022-12-19T05:19:51;1.90;99.90
5023;DHT22;2530;47.990;7.866;2022-12-19T05:22:16;1.90;99.90
5023;DHT22;2530;47.990;7.866;2022-12-19T05:24:42;1.90;99.90
5023;DHT22;2530;47.990;7.866;2022-12-19T05:27:07;1.80;99.90
5023;DHT22;2530;47.990;7.866;2022-12-19T05:29:33;1.80;99.90
5023;DHT22;2530;47.990;7.866;2022-12-19T05:31:59;1.80;99.90
5023;DHT22;2530;47.990;7.866;2022-12-19T05:34:24;1.80;99.90
5023;DHT22;2530;47.990;7.866;2022-12-19T05:36:50;1.90;99.90
5023;DHT22;2530;47.990;7.866;2022-12-19T05:39:15;2.00;99.90
5023;DHT22;2530;47.990;7.866;2022-12-19T05:41:41;1.90;99.90
5023;DHT22;2530;47.990;7.866;2022-12-19T05:44:08;1.90;99.90
5023;DHT22;2530;47.990;7.866;2022-12-19T05:46:33;2.00;99.90
5023;DHT22;2530;47.990;7.866;2022-12-19T05:48:59;2.10;99.90
5023;DHT22;2530;47.990;7.866;2022-12-19T05:51:24;2.00;99.90
5023;DHT22;2530;47.990;7.866;2022-12-19T05:53:50;2.10;99.90
5023;DHT22;2530;47.990;7.866;2022-12-19T05:56:18;2.10;99.90
5023;DHT22;2530;47.990;7.866;2022-12-19T05:58:44;2.10;99.90
5023;DHT22;2530;47.990;7.866;2022-12-19T06:01:21;2.10;99.90
5023;DHT22;2530;47.990;7.866;2022-12-19T06:03:47;2.10;99.90
5023;DHT22;2530;47.990;7.866;2022-12-19T06:06:16;2.10;99.90
5023;DHT22;2530;47.990;7.866;2022-12-19T06:08:42;2.10;99.90
5023;DHT22;2530;47.990;7.866;2022-12-19T06:11:09;2.00;99.90
5023;DHT22;2530;47.990;7.866;2022-12-19T06:13:36;2.00;99.90
5023;DHT22;2530;47.990;7.866;2022-12-19T06:16:21;2.00;99.90
5023;DHT22;2530;47.990;7.866;2022-12-19T06:18:47;2.00;99.90
5023;DHT22;2530;47.990;7.866;2022-12-19T06:21:16;2.00;99.90
5023;DHT22;2530;47.990;7.866;2022-12-19T06:23:42;2.00;99.90
5023;DHT22;2530;47.990;7.866;2022-12-19T06:26:11;2.00;99.90
5023;DHT22;2530;47.990;7.866;2022-12-19T06:28:36;2.10;99.90
5023;DHT22;2530;47.990;7.866;2022-12-19T06:31:03;2.10;99.90
5023;DHT22;2530;47.990;7.866;2022-12-19T06:33:30;2.20;99.90
5023;DHT22;2530;47.990;7.866;2022-12-19T06:36:05;2.30;99.90
5023;DHT22;2530;47.990;7.866;2022-12-19T06:38:31;2.30;99.90
5023;DHT22;2530;47.990;7.866;2022-12-19T06:40:57;2.20;99.90
5023;DHT22;2530;47.990;7.866;2022-12-19T06:43:42;2.20;99.90
5023;DHT22;2530;47.990;7.866;2022-12-19T06:46:08;2.10;99.90
5023;DHT22;2530;47.990;7.866;2022-12-19T06:48:34;2.30;99.90
5023;DHT22;2530;47.990;7.866;2022-12-19T06:50:59;2.20;99.90
5023;DHT22;2530;47.990;7.866;2022-12-19T06:53:25;2.30;99.90
5023;DHT22;2530;47.990;7.866;2022-12-19T06:55:52;2.30;99.90
5023;DHT22;2530;47.990;7.866;2022-12-19T06:58:19;2.30;99.90
5023;DHT22;2530;47.990;7.866;2022-12-19T07:00:46;2.30;99.90
5023;DHT22;2530;47.990;7.866;2022-12-19T07:03:17;2.40;99.90
5023;DHT22;2530;47.990;7.866;2022-12-19T07:05:43;2.30;99.90
5023;DHT22;2530;47.990;7.866;2022-12-19T07:08:09;2.40;99.90
5023;DHT22;2530;47.990;7.866;2022-12-19T07:10:35;2.40;99.90
5023;DHT22;2530;47.990;7.866;2022-12-19T07:13:01;2.40;99.90
5023;DHT22;2530;47.990;7.866;2022-12-19T07:15:27;2.40;99.90
5023;DHT22;2530;47.990;7.866;2022-12-19T07:17:54;2.40;99.90
5023;DHT22;2530;47.990;7.866;2022-12-19T07:20:20;2.50;99.90
5023;DHT22;2530;47.990;7.866;2022-12-19T07:22:46;2.40;99.90
5023;DHT22;2530;47.990;7.866;2022-12-19T07:25:12;2.50;99.90
5023;DHT22;2530;47.990;7.866;2022-12-19T07:27:38;2.50;99.90
5023;DHT22;2530;47.990;7.866;2022-12-19T07:30:05;2.40;99.90
5023;DHT22;2530;47.990;7.866;2022-12-19T07:32:32;2.40;99.90
5023;DHT22;2530;47.990;7.866;2022-12-19T07:34:57;2.40;99.90
5023;DHT22;2530;47.990;7.866;2022-12-19T07:37:23;2.40;99.90
5023;DHT22;2530;47.990;7.866;2022-12-19T07:39:48;2.40;99.90
5023;DHT22;2530;47.990;7.866;2022-12-19T07:42:14;2.40;99.90
5023;DHT22;2530;47.990;7.866;2022-12-19T07:44:39;2.40;99.90
5023;DHT22;2530;47.990;7.866;2022-12-19T07:47:08;2.50;99.90
5023;DHT22;2530;47.990;7.866;2022-12-19T07:49:34;2.40;99.90
5023;DHT22;2530;47.990;7.866;2022-12-19T07:51:59;2.50;99.90
5023;DHT22;2530;47.990;7.866;2022-12-19T07:54:25;2.40;99.90
5023;DHT22;2530;47.990;7.866;2022-12-19T07:56:51;2.50;99.90
5023;DHT22;2530;47.990;7.866;2022-12-19T07:59:16;2.50;99.90
5023;DHT22;2530;47.990;7.866;2022-12-19T08:01:42;2.40;99.90
5023;DHT22;2530;47.990;7.866;2022-12-19T08:04:07;2.50;99.90
5023;DHT22;2530;47.990;7.866;2022-12-19T08:06:33;2.50;99.90
5023;DHT22;2530;47.990;7.866;2022-12-19T08:08:59;2.60;99.90
5023;DHT22;2530;47.990;7.866;2022-12-19T08:11:24;2.50;99.90
5023;DHT22;2530;47.990;7.866;2022-12-19T08:13:55;2.60;99.90
5023;DHT22;2530;47.990;7.866;2022-12-19T08:16:22;2.70;99.90
5023;DHT22;2530;47.990;7.866;2022-12-19T08:18:48;2.70;99.90
5023;DHT22;2530;47.990;7.866;2022-12-19T08:21:14;2.80;99.90
5023;DHT22;2530;47.990;7.866;2022-12-19T08:23:40;2.80;99.90
5023;DHT22;2530;47.990;7.866;2022-12-19T08:26:14;2.90;99.90
5023;DHT22;2530;47.990;7.866;2022-12-19T08:28:40;2.90;99.90
5023;DHT22;2530;47.990;7.866;2022-12-19T08:31:13;2.90;99.90
5023;DHT22;2530;47.990;7.866;2022-12-19T08:33:39;2.90;99.90
5023;DHT22;2530;47.990;7.866;2022-12-19T08:36:10;3.00;99.90
5023;DHT22;2530;47.990;7.866;2022-12-19T08:38:36;2.90;99.90
5023;DHT22;2530;47.990;7.866;2022-12-19T08:41:04;2.90;99.90
5023;DHT22;2530;47.990;7.866;2022-12-19T08:43:30;2.90;99.90
5023;DHT22;2530;47.990;7.866;2022-12-19T08:45:56;3.00;99.90
5023;DHT22;2530;47.990;7.866;2022-12-19T08:48:22;3.10;99.90
5023;DHT22;2530;47.990;7.866;2022-12-19T08:50:55;3.10;99.90
5023;DHT22;2530;47.990;7.866;2022-12-19T08:53:23;3.20;99.90
5023;DHT22;2530;47.990;7.866;2022-12-19T08:55:56;3.30;99.90
5023;DHT22;2530;47.990;7.866;2022-12-19T08:58:22;3.40;99.90
5023;DHT22;2530;47.990;7.866;2022-12-19T09:00:48;3.50;99.90
5023;DHT22;2530;47.990;7.866;2022-12-19T09:03:14;3.50;99.90
5023;DHT22;2530;47.990;7.866;2022-12-19T09:05:40;3.60;99.90
5023;DHT22;2530;47.990;7.866;2022-12-19T09:08:05;3.70;99.90
5023;DHT22;2530;47.990;7.866;2022-12-19T09:10:31;3.80;99.90
5023;DHT22;2530;47.990;7.866;2022-12-19T09:12:57;3.90;99.90
5023;DHT22;2530;47.990;7.866;2022-12-19T09:15:23;3.90;99.90
5023;DHT22;2530;47.990;7.866;2022-12-19T09:17:48;4.00;99.90
5023;DHT22;2530;47.990;7.866;2022-12-19T09:20:14;4.10;99.90
5023;DHT22;2530;47.990;7.866;2022-12-19T09:22:39;4.10;99.90
5023;DHT22;2530;47.990;7.866;2022-12-19T09:25:05;4.00;99.90
5023;DHT22;2530;47.990;7.866;2022-12-19T09:27:31;4.40;99.90
5023;DHT22;2530;47.990;7.866;2022-12-19T09:29:56;4.20;99.90
5023;DHT22;2530;47.990;7.866;2022-12-19T09:32:22;4.20;99.90
5023;DHT22;2530;47.990;7.866;2022-12-19T09:34:47;4.20;99.90
5023;DHT22;2530;47.990;7.866;2022-12-19T09:37:13;4.10;99.90
5023;DHT22;2530;47.990;7.866;2022-12-19T09:39:40;4.00;99.90
5023;DHT22;2530;47.990;7.866;2022-12-19T09:45:03;4.20;99.90
5023;DHT22;2530;47.990;7.866;2022-12-19T09:47:36;4.20;99.90
5023;DHT22;2530;47.990;7.866;2022-12-19T09:50:20;4.30;99.90
5023;DHT22;2530;47.990;7.866;2022-12-19T09:52:50;4.30;99.90
5023;DHT22;2530;47.990;7.866;2022-12-19T09:55:32;4.40;99.90
5023;DHT22;2530;47.990;7.866;2022-12-19T09:58:09;4.50;99.90
5023;DHT22;2530;47.990;7.866;2022-12-19T10:00:54;4.60;99.90
5023;DHT22;2530;47.990;7.866;2022-12-19T10:03:30;4.70;99.90
5023;DHT22;2530;47.990;7.866;2022-12-19T10:06:04;4.70;99.90
5023;DHT22;2530;47.990;7.866;2022-12-19T10:08:39;4.60;99.90
5023;DHT22;2530;47.990;7.866;2022-12-19T10:14:02;4.70;99.90
5023;DHT22;2530;47.990;7.866;2022-12-19T10:19:52;5.00;99.90
5023;DHT22;2530;47.990;7.866;2022-12-19T10:22:40;5.30;99.90
5023;DHT22;2530;47.990;7.866;2022-12-19T10:25:24;5.40;99.90
5023;DHT22;2530;47.990;7.866;2022-12-19T10:30:29;5.80;99.90
5023;DHT22;2530;47.990;7.866;2022-12-19T10:33:25;5.90;99.90
5023;DHT22;2530;47.990;7.866;2022-12-19T10:35:56;5.90;99.90
5023;DHT22;2530;47.990;7.866;2022-12-19T10:39:02;6.10;99.90
5023;DHT22;2530;47.990;7.866;2022-12-19T10:41:31;6.10;99.90
5023;DHT22;2530;47.990;7.866;2022-12-19T10:44:01;6.20;99.90
5023;DHT22;2530;47.990;7.866;2022-12-19T10:46:47;6.30;99.90
5023;DHT22;2530;47.990;7.866;2022-12-19T10:49:19;6.20;99.90
5023;DHT22;2530;47.990;7.866;2022-12-19T10:54:37;6.40;99.90
5023;DHT22;2530;47.990;7.866;2022-12-19T10:57:27;6.60;99.90
5023;DHT22;2530;47.990;7.866;2022-12-19T10:59:59;6.50;99.90
5023;DHT22;2530;47.990;7.866;2022-12-19T11:02:41;6.50;99.90
5023;DHT22;2530;47.990;7.866;2022-12-19T11:05:38;6.60;99.90
5023;DHT22;2530;47.990;7.866;2022-12-19T11:10:38;6.50;99.90
5023;DHT22;2530;47.990;7.866;2022-12-19T11:15:59;6.50;99.90
5023;DHT22;2530;47.990;7.866;2022-12-19T11:18:43;6.80;99.90
5023;DHT22;2530;47.990;7.866;2022-12-19T11:21:13;7.10;99.90
5023;DHT22;2530;47.990;7.866;2022-12-19T11:26:41;6.80;99.90
5023;DHT22;2530;47.990;7.866;2022-12-19T11:29:18;6.90;99.90
5023;DHT22;2530;47.990;7.866;2022-12-19T11:31:46;7.00;99.90
5023;DHT22;2530;47.990;7.866;2022-12-19T11:34:21;6.90;99.90
5023;DHT22;2530;47.990;7.866;2022-12-19T11:37:10;7.10;99.90
5023;DHT22;2530;47.990;7.866;2022-12-19T11:39:49;7.00;99.90
5023;DHT22;2530;47.990;7.866;2022-12-19T11:42:31;7.40;99.90
5023;DHT22;2530;47.990;7.866;2022-12-19T11:45:22;7.70;99.90
5023;DHT22;2530;47.990;7.866;2022-12-19T11:47:59;7.70;99.90
5023;DHT22;2530;47.990;7.866;2022-12-19T11:50:32;8.10;99.90
5023;DHT22;2530;47.990;7.866;2022-12-19T11:53:24;8.10;99.90
5023;DHT22;2530;47.990;7.866;2022-12-19T11:59:28;7.60;99.90
5023;DHT22;2530;47.990;7.866;2022-12-19T12:02:32;7.40;99.90
5023;DHT22;2530;47.990;7.866;2022-12-19T12:08:11;7.30;99.90
5023;DHT22;2530;47.990;7.866;2022-12-19T12:10:49;7.50;99.90
5023;DHT22;2530;47.990;7.866;2022-12-19T12:21:49;8.60;99.90
5023;DHT22;2530;47.990;7.866;2022-12-19T12:24:50;8.40;99.90
5023;DHT22;2530;47.990;7.866;2022-12-19T12:27:48;8.00;99.90
5023;DHT22;2530;47.990;7.866;2022-12-19T12:30:17;7.80;99.90
5023;DHT22;2530;47.990;7.866;2022-12-19T12:33:07;7.50;99.90
5023;DHT22;2530;47.990;7.866;2022-12-19T12:35:38;7.70;99.90
5023;DHT22;2530;47.990;7.866;2022-12-19T12:43:59;7.40;99.90
5023;DHT22;2530;47.990;7.866;2022-12-19T12:46:30;7.50;99.90
5023;DHT22;2530;47.990;7.866;2022-12-19T12:49:03;7.40;99.90
5023;DHT22;2530;47.990;7.866;2022-12-19T12:51:30;7.30;99.90
5023;DHT22;2530;47.990;7.866;2022-12-19T12:54:06;7.20;99.90
5023;DHT22;2530;47.990;7.866;2022-12-19T12:56:34;7.20;99.90
5023;DHT22;2530;47.990;7.866;2022-12-19T13:01:34;7.30;99.90
5023;DHT22;2530;47.990;7.866;2022-12-19T13:09:29;7.30;99.90
5023;DHT22;2530;47.990;7.866;2022-12-19T13:14:45;7.40;99.90
5023;DHT22;2530;47.990;7.866;2022-12-19T13:17:26;7.30;99.90
5023;DHT22;2530;47.990;7.866;2022-12-19T13:22:41;7.40;99.90
5023;DHT22;2530;47.990;7.866;2022-12-19T13:27:55;7.60;99.90
5023;DHT22;2530;47.990;7.866;2022-12-19T13:30:21;7.70;99.90
5023;DHT22;2530;47.990;7.866;2022-12-19T13:37:41;7.80;99.90
5023;DHT22;2530;47.990;7.866;2022-12-19T13:49:05;7.40;99.90
5023;DHT22;2530;47.990;7.866;2022-12-19T13:51:23;7.20;99.90
5023;DHT22;2530;47.990;7.866;2022-12-19T13:53:52;7.10;99.90
5023;DHT22;2530;47.990;7.866;2022-12-19T13:56:18;7.10;99.90
5023;DHT22;2530;47.990;7.866;2022-12-19T13:58:53;7.10;99.90
5023;DHT22;2530;47.990;7.866;2022-12-19T14:01:25;7.00;99.90
5023;DHT22;2530;47.990;7.866;2022-12-19T14:03:53;6.90;99.90
5023;DHT22;2530;47.990;7.866;2022-12-19T14:06:28;6.80;99.90
5023;DHT22;2530;47.990;7.866;2022-12-19T14:09:01;6.80;99.90
5023;DHT22;2530;47.990;7.866;2022-12-19T14:11:28;6.80;99.90
5023;DHT22;2530;47.990;7.866;2022-12-19T14:13:56;6.80;99.90
5023;DHT22;2530;47.990;7.866;2022-12-19T14:16:45;6.80;99.90
5023;DHT22;2530;47.990;7.866;2022-12-19T14:19:21;6.90;99.90
5023;DHT22;2530;47.990;7.866;2022-12-19T14:21:49;6.80;99.90
5023;DHT22;2530;47.990;7.866;2022-12-19T14:24:18;6.80;99.90
5023;DHT22;2530;47.990;7.866;2022-12-19T14:26:50;6.80;99.90
5023;DHT22;2530;47.990;7.866;2022-12-19T14:29:27;6.80;99.90
5023;DHT22;2530;47.990;7.866;2022-12-19T14:31:54;6.70;99.90
5023;DHT22;2530;47.990;7.866;2022-12-19T14:34:25;6.70;99.90
5023;DHT22;2530;47.990;7.866;2022-12-19T14:36:56;6.70;99.90
5023;DHT22;2530;47.990;7.866;2022-12-19T14:39:33;6.60;99.90
5023;DHT22;2530;47.990;7.866;2022-12-19T14:42:12;6.30;99.90
5023;DHT22;2530;47.990;7.866;2022-12-19T14:44:57;6.40;99.90
5023;DHT22;2530;47.990;7.866;2022-12-19T14:47:43;6.30;99.90
5023;DHT22;2530;47.990;7.866;2022-12-19T14:50:32;6.40;99.90
5023;DHT22;2530;47.990;7.866;2022-12-19T14:53:07;6.20;99.90
5023;DHT22;2530;47.990;7.866;2022-12-19T14:55:36;6.10;99.90
5023;DHT22;2530;47.990;7.866;2022-12-19T14:58:13;6.00;99.90
5023;DHT22;2530;47.990;7.866;2022-12-19T15:00:44;6.00;99.90
5023;DHT22;2530;47.990;7.866;2022-12-19T15:03:34;5.90;99.90
5023;DHT22;2530;47.990;7.866;2022-12-19T15:06:26;5.90;99.90
5023;DHT22;2530;47.990;7.866;2022-12-19T15:09:02;5.90;99.90
5023;DHT22;2530;47.990;7.866;2022-12-19T15:11:32;5.80;99.90
5023;DHT22;2530;47.990;7.866;2022-12-19T15:14:24;5.90;99.90
5023;DHT22;2530;47.990;7.866;2022-12-19T15:17:19;5.70;99.90
5023;DHT22;2530;47.990;7.866;2022-12-19T15:19:45;5.60;99.90
5023;DHT22;2530;47.990;7.866;2022-12-19T15:22:11;5.50;99.90
5023;DHT22;2530;47.990;7.866;2022-12-19T15:24:36;5.50;99.90
5023;DHT22;2530;47.990;7.866;2022-12-19T15:27:02;5.60;99.90
5023;DHT22;2530;47.990;7.866;2022-12-19T15:29:28;5.60;99.90
5023;DHT22;2530;47.990;7.866;2022-12-19T15:31:54;5.50;99.90
5023;DHT22;2530;47.990;7.866;2022-12-19T15:34:25;5.40;99.90
5023;DHT22;2530;47.990;7.866;2022-12-19T15:36:52;5.40;99.90
5023;DHT22;2530;47.990;7.866;2022-12-19T15:39:18;5.30;99.90
5023;DHT22;2530;47.990;7.866;2022-12-19T15:41:46;5.30;99.90
5023;DHT22;2530;47.990;7.866;2022-12-19T15:46:45;5.20;99.90
5023;DHT22;2530;47.990;7.866;2022-12-19T15:49:17;5.20;99.90
5023;DHT22;2530;47.990;7.866;2022-12-19T15:51:43;5.10;99.90
5023;DHT22;2530;47.990;7.866;2022-12-19T15:54:09;5.10;99.90
5023;DHT22;2530;47.990;7.866;2022-12-19T15:56:41;5.00;99.90
5023;DHT22;2530;47.990;7.866;2022-12-19T15:59:32;5.00;99.90
5023;DHT22;2530;47.990;7.866;2022-12-19T16:02:00;5.10;99.90
5023;DHT22;2530;47.990;7.866;2022-12-19T16:04:27;5.00;99.90
5023;DHT22;2530;47.990;7.866;2022-12-19T16:06:53;4.90;99.90
5023;DHT22;2530;47.990;7.866;2022-12-19T16:09:24;5.20;99.90
5023;DHT22;2530;47.990;7.866;2022-12-19T16:11:51;5.00;99.90
5023;DHT22;2530;47.990;7.866;2022-12-19T16:14:18;5.10;99.90
5023;DHT22;2530;47.990;7.866;2022-12-19T16:16:54;4.90;99.90
5023;DHT22;2530;47.990;7.866;2022-12-19T16:19:25;4.80;99.90
5023;DHT22;2530;47.990;7.866;2022-12-19T16:21:51;4.90;99.90
5023;DHT22;2530;47.990;7.866;2022-12-19T16:24:16;4.80;99.90
5023;DHT22;2530;47.990;7.866;2022-12-19T16:26:42;4.80;99.90
5023;DHT22;2530;47.990;7.866;2022-12-19T16:29:23;4.70;99.90
5023;DHT22;2530;47.990;7.866;2022-12-19T16:31:55;4.60;99.90
5023;DHT22;2530;47.990;7.866;2022-12-19T16:34:23;4.70;99.90
5023;DHT22;2530;47.990;7.866;2022-12-19T16:36:49;4.60;99.90
5023;DHT22;2530;47.990;7.866;2022-12-19T16:39:15;4.60;99.90
5023;DHT22;2530;47.990;7.866;2022-12-19T16:41:42;4.70;99.90
5023;DHT22;2530;47.990;7.866;2022-12-19T16:44:16;4.70;99.90
5023;DHT22;2530;47.990;7.866;2022-12-19T16:46:42;4.80;99.90
5023;DHT22;2530;47.990;7.866;2022-12-19T16:49:19;4.80;99.90
5023;DHT22;2530;47.990;7.866;2022-12-19T16:51:48;4.70;99.90
5023;DHT22;2530;47.990;7.866;2022-12-19T16:54:16;4.70;99.90
5023;DHT22;2530;47.990;7.866;2022-12-19T16:56:46;4.70;99.90
5023;DHT22;2530;47.990;7.866;2022-12-19T16:59:19;4.70;99.90
5023;DHT22;2530;47.990;7.866;2022-12-19T17:01:48;4.70;99.90
5023;DHT22;2530;47.990;7.866;2022-12-19T17:04:20;4.70;99.90
5023;DHT22;2530;47.990;7.866;2022-12-19T17:06:50;4.70;99.90
5023;DHT22;2530;47.990;7.866;2022-12-19T17:09:36;4.70;99.90
5023;DHT22;2530;47.990;7.866;2022-12-19T17:12:02;4.70;99.90
5023;DHT22;2530;47.990;7.866;2022-12-19T17:14:30;4.70;99.90
5023;DHT22;2530;47.990;7.866;2022-12-19T17:16:57;4.50;99.90
5023;DHT22;2530;47.990;7.866;2022-12-19T17:19:35;4.60;99.90
5023;DHT22;2530;47.990;7.866;2022-12-19T17:22:01;4.70;99.90
5023;DHT22;2530;47.990;7.866;2022-12-19T17:24:27;4.70;99.90
5023;DHT22;2530;47.990;7.866;2022-12-19T17:26:53;4.70;99.90
5023;DHT22;2530;47.990;7.866;2022-12-19T17:29:18;4.70;99.90
5023;DHT22;2530;47.990;7.866;2022-12-19T17:31:44;4.70;99.90
5023;DHT22;2530;47.990;7.866;2022-12-19T17:34:26;4.70;99.90
5023;DHT22;2530;47.990;7.866;2022-12-19T17:36:52;4.70;99.90
5023;DHT22;2530;47.990;7.866;2022-12-19T17:39:23;4.60;99.90
5023;DHT22;2530;47.990;7.866;2022-12-19T17:41:50;4.50;99.90
5023;DHT22;2530;47.990;7.866;2022-12-19T17:44:16;4.50;99.90
5023;DHT22;2530;47.990;7.866;2022-12-19T17:46:43;4.50;99.90
5023;DHT22;2530;47.990;7.866;2022-12-19T17:49:28;4.50;99.90
5023;DHT22;2530;47.990;7.866;2022-12-19T17:51:54;4.40;99.90
5023;DHT22;2530;47.990;7.866;2022-12-19T17:54:21;4.40;99.90
5023;DHT22;2530;47.990;7.866;2022-12-19T17:56:47;4.40;99.90
5023;DHT22;2530;47.990;7.866;2022-12-19T17:59:12;4.40;99.90
5023;DHT22;2530;47.990;7.866;2022-12-19T18:01:39;4.30;99.90
5023;DHT22;2530;47.990;7.866;2022-12-19T18:04:16;4.40;99.90
5023;DHT22;2530;47.990;7.866;2022-12-19T18:06:43;4.30;99.90
5023;DHT22;2530;47.990;7.866;2022-12-19T18:09:22;4.30;99.90
5023;DHT22;2530;47.990;7.866;2022-12-19T18:11:49;4.20;99.90
5023;DHT22;2530;47.990;7.866;2022-12-19T18:14:15;4.30;99.90
5023;DHT22;2530;47.990;7.866;2022-12-19T18:16:41;4.50;99.90
5023;DHT22;2530;47.990;7.866;2022-12-19T18:19:17;4.40;99.90
5023;DHT22;2530;47.990;7.866;2022-12-19T18:21:44;4.30;99.90
5023;DHT22;2530;47.990;7.866;2022-12-19T18:24:11;4.30;99.90
5023;DHT22;2530;47.990;7.866;2022-12-19T18:26:36;4.40;99.90
5023;DHT22;2530;47.990;7.866;2022-12-19T18:29:02;4.40;99.90